首页
METAR-TAF:

METAR-TAF

机场 :

Mosinee, 威斯康辛州, 美国

纬度: 44-47N, 经度: 089-40W, 海拔: 389米

当前天气观测

该预报发布于58分钟前的20:48 UTC
风速12节,风向西转西北,有时为17节阵风
温度 -7°C
湿度 86%
气压 1007 hPa
能見度: 8.0公里
阴天层高于800英尺
轻雾

METAR: KCWA 142048Z 30012G17KT 5SM BR OVC008 M07/M09 A2974

时间: 15:46 (21:46 UTC)

预报

该预报发布于4小时和15分钟前的17:31 UTC
预报有效从14日的 18点(UTC)到 15日的 18点(UTC)
风速8节,风向西转西北
能見度: 9.7公里
散云层高于700英尺
阴天层高于1000英尺
轻雾
短暂存在
从 14日的 18点(UTC)到 14日的 20点(UTC)
能見度: 8.0公里
小阵雪
从 14日的 2000点(UTC)
风速9节,风向西转西北
能見度: 10公里
阴天层高于1500英尺
小阵雪
从 15日的 0000点(UTC)
风速8节,风向西北
能見度: 10公里
多云层高于2000英尺
小阵雪
从 15日的 0300点(UTC)
风速7节,风向西北
能見度: 10公里
多云层高于2500英尺
从 15日的 0500点(UTC)
风速5节,风向西北
能見度: 10公里
散云层高于5000英尺
从 15日的 1500点(UTC)
风速3节,风向西
能見度: 10公里
散云层高于6000英尺

TAF: KCWA 141731Z 1418/1518 30008KT 6SM BR SCT007 OVC010 TEMPO 1418/1420 5SM -SHSN FM142000 30009KT P6SM -SHSN OVC015 FM150000 31008KT P6SM -SHSN BKN020 FM150300 31007KT P6SM BKN025 FM150500 31005KT P6SM SCT050 FM151500 28003KT P6SM SCT060

超过4000个机场的气象观测和天气预报(METAR&TAF报告)。

可查询的气象台以黄色和红色小点在地图上表示。

将鼠标移到小点上方,可查看气象台名称。

然后点击查看天气观测和预报。

如需切换地图:点击带黑十字的绿色按钮放大地图;点击带横线的绿色按钮缩小地图;或者点击绿色箭头查看邻近地区的地图。


METAR-TAF: